Amy C. Mc Allister — WCZ9520 — position and weather

sailwx.info

Track history (hours):
 
Tides and Currents Weather Stations Pressure Air Temp Water Temp Dewpoint Dewpoint Depression Visibility Wind Speed Wind Dir Waves Ship Positions

Amy C. Mc Allister

Owner: MC ALLISTER TOWING & TRANSPORTATION INC, NEW YORK, NY. More information available from US FCC via Universal Licensing System and Coast Guard Vessel Documentation Center.

Last reported at 2014-Nov-24 12:09 UTC. Time now 2014-Nov-25 22:04 UTC.
Position N 40°48' W 073°59'.

Length 27 m; draft 4.9 m.

Type: Towing. MMSI: 366995040.

Date/timePositionNaut miles runAvg speedWind from/ knotsBaromVisibWave heightAir tempDewpointWater temp
2014-Nov-24 12:09N 40°48' W 073°59'610.6
2014-Nov-24 11:33N 40°42' W 074°01'7 6.5
2014-Nov-24 10:33N 40°39' W 074°09'2 0.6
2014-Nov-24 07:22N 40°39' W 074°11'1 0.4
2014-Nov-24 04:33N 40°38' W 074°10'0 0.0
2014-Nov-24 03:33N 40°38' W 074°10'0 0.0
2014-Nov-24 02:30N 40°38' W 074°10'0 0.0
2014-Nov-24 01:18N 40°38' W 074°10'0 0.0
2014-Nov-24 00:32N 40°38' W 074°10'0 0.0
2014-Nov-23 23:27N 40°38' W 074°10'0 0.0
2014-Nov-23 22:27N 40°38' W 074°10'0 0.0
2014-Nov-23 20:28N 40°38' W 074°10'0 0.0
2014-Nov-23 19:28N 40°38' W 074°10'0 0.0
2014-Nov-23 18:33N 40°38' W 074°10'0 0.0
2014-Nov-23 17:26N 40°38' W 074°10'0 0.0
2014-Nov-23 16:33N 40°38' W 074°10'4 3.6
2014-Nov-23 15:29N 40°35' W 074°13'4 3.9
2014-Nov-23 14:32N 40°39' W 074°11'3 3.0
2014-Nov-23 13:33N 40°39' W 074°07'0 0.0
2014-Nov-23 12:33N 40°39' W 074°07'0 0.0
2014-Nov-23 11:33N 40°39' W 074°07'0 0.0
2014-Nov-23 10:33N 40°39' W 074°07'0 0.0
2014-Nov-23 09:33N 40°39' W 074°07'0 0.0
2014-Nov-23 08:33N 40°39' W 074°07'0 0.0
2014-Nov-23 07:33N 40°39' W 074°07'0 0.0
2014-Nov-23 06:33N 40°39' W 074°07'0 0.0
2014-Nov-23 05:33N 40°39' W 074°07'0 0.0
2014-Nov-23 04:33N 40°39' W 074°07'0 0.0
2014-Nov-23 03:32N 40°39' W 074°07'0 0.0
2014-Nov-23 02:32N 40°39' W 074°07'0 0.0
2014-Nov-23 01:33N 40°39' W 074°07'0 0.0
2014-Nov-23 00:33N 40°39' W 074°07'0 0.0
2014-Nov-22 23:33N 40°39' W 074°07'0 0.0
2014-Nov-22 22:33N 40°39' W 074°07'0 0.5
2014-Nov-22 21:33N 40°39' W 074°07'5 5.5
2014-Nov-22 20:33N 40°43' W 074°02'4 4.2
2014-Nov-22 19:33N 40°45' W 073°57'24 7.6
2014-Nov-22 16:27N 40°58' W 073°31'7 8.4
2014-Nov-22 15:33N 41°01' W 073°22'9 8.7
2014-Nov-22 14:33N 41°01' W 073°10'8 8.3
2014-Nov-22 13:33N 41°03' W 072°59'8 8.4
2014-Nov-22 12:33N 41°05' W 072°48'9 9.3
2014-Nov-22 11:33N 41°07' W 072°37'10 9.5
2014-Nov-22 10:33N 41°10' W 072°24'9 8.8
2014-Nov-22 09:33N 41°12' W 072°13'7 7.4
2014-Nov-22 08:33N 41°14' W 072°04'7 6.6
2014-Nov-22 07:33N 41°15' W 071°55'7 7.3
2014-Nov-22 06:33N 41°16' W 071°46'7 7.4
2014-Nov-22 05:33N 41°18' W 071°36'7 7.3
2014-Nov-22 04:33N 41°17' W 071°26'7 7.3
2014-Nov-22 03:33N 41°20' W 071°17'7 7.5
2014-Nov-22 02:33N 41°23' W 071°08'  
2014-Nov-19 13:27N 41°23' W 071°07'7 7.7
2014-Nov-19 12:33N 41°23' W 071°16'6 5.9
2014-Nov-19 11:33N 41°22' W 071°24'5 4.8
2014-Nov-19 10:33N 41°18' W 071°28'3 3.5
2014-Nov-19 09:33N 41°18' W 071°33'3 3.4
2014-Nov-19 08:33N 41°17' W 071°37'4 3.6
2014-Nov-19 07:33N 41°17' W 071°42'4 3.8
2014-Nov-19 06:33N 41°16' W 071°47'4 4.3
2014-Nov-19 05:33N 41°15' W 071°53'5 4.6
2014-Nov-19 04:33N 41°14' W 071°59'7 6.6
2014-Nov-19 03:33N 41°14' W 072°07'6 6.5
2014-Nov-19 02:33N 41°12' W 072°16'6 6.0
2014-Nov-19 01:33N 41°10' W 072°23'5 5.4
2014-Nov-19 00:33N 41°09' W 072°30'5 5.1
2014-Nov-18 23:33N 41°08' W 072°37'5 5.1
2014-Nov-18 22:33N 41°06' W 072°43'5 5.2
2014-Nov-18 21:33N 41°05' W 072°50'5 5.1
2014-Nov-18 20:33N 41°04' W 072°56'5 5.1
2014-Nov-18 19:33N 41°03' W 073°03'6 5.2
2014-Nov-18 18:19N 41°02' W 073°12'32 5.1
2014-Nov-18 12:06N 40°48' W 073°49'3 5.5
2014-Nov-18 11:32N 40°48' W 073°54'7 7.4
2014-Nov-18 10:33N 40°42' W 073°59'3 3.5
2014-Nov-18 09:33N 40°40' W 074°02'0 0.0
2014-Nov-18 08:33N 40°40' W 074°02'0 0.1
2014-Nov-18 07:33N 40°40' W 074°02'1 0.7
2014-Nov-18 06:33N 40°39' W 074°03'6 6.5
2014-Nov-18 05:33N 40°39' W 074°11'3 2.5
2014-Nov-18 04:30N 40°36' W 074°12'0 0.0
2014-Nov-18 03:20N 40°36' W 074°12'3 2.3
2014-Nov-18 02:14N 40°39' W 074°11'1 1.1
2014-Nov-18 01:08N 40°38' W 074°10'3 5.8
2014-Nov-18 00:33N 40°39' W 074°05'2 2.3
2014-Nov-17 23:33N 40°39' W 074°02'0 0.0
2014-Nov-17 22:33N 40°39' W 074°02'0 0.0
2014-Nov-17 21:33N 40°39' W 074°02'0 0.0
2014-Nov-17 20:33N 40°39' W 074°02'0 0.0
2014-Nov-17 19:33N 40°39' W 074°02'0 0.1
2014-Nov-17 18:33N 40°39' W 074°03'0 0.0
2014-Nov-17 17:33N 40°39' W 074°03'0 0.0
2014-Nov-17 16:33N 40°39' W 074°03'2 2.0
2014-Nov-17 15:33N 40°40' W 074°00'8 8.3
2014-Nov-17 14:33N 40°39' W 074°11'3 1.3
2014-Nov-17 12:33N 40°36' W 074°12'1 1.3
2014-Nov-17 11:29N 40°35' W 074°13'6 0.6
2014-Nov-17 02:11N 40°29' W 074°15'0 0.0
2014-Nov-16 22:31N 40°29' W 074°15'0 0.0
2014-Nov-16 21:27N 40°29' W 074°15'0 0.0
2014-Nov-16 20:09N 40°29' W 074°15'9 2.5
2014-Nov-16 16:28N 40°38' W 074°12'6 6.5
2014-Nov-16 15:33N 40°39' W 074°04'2 2.2
2014-Nov-16 14:33N 40°40' W 074°02'0 0.0
2014-Nov-16 13:33N 40°40' W 074°02'0 0.0
2014-Nov-16 12:33N 40°40' W 074°02'0 0.0
2014-Nov-16 11:33N 40°40' W 074°02'0 0.1
2014-Nov-16 10:33N 40°40' W 074°02'0 0.0
2014-Nov-16 09:33N 40°40' W 074°02'0 0.0
2014-Nov-16 08:33N 40°40' W 074°02'0 0.0
2014-Nov-16 07:33N 40°40' W 074°02'0 0.0
2014-Nov-16 06:33N 40°40' W 074°02'0 0.1
2014-Nov-16 05:33N 40°40' W 074°02'0 0.0
2014-Nov-16 04:33N 40°40' W 074°02'0 0.0
2014-Nov-16 03:33N 40°40' W 074°02'0 0.0
2014-Nov-16 02:33N 40°40' W 074°02'0 0.0
2014-Nov-16 01:33N 40°40' W 074°02'0 0.0
2014-Nov-16 00:33N 40°40' W 074°02'0 0.0
2014-Nov-15 23:33N 40°40' W 074°02'0 0.0
2014-Nov-15 22:33N 40°40' W 074°02'0 0.1
2014-Nov-15 21:33N 40°40' W 074°02'2 1.7
2014-Nov-15 20:33N 40°41' W 074°00'0 0.0
2014-Nov-15 19:33N 40°41' W 074°00'0 0.0
2014-Nov-15 18:33N 40°41' W 074°00'2 1.7
2014-Nov-15 17:33N 40°40' W 074°02'0 0.0
2014-Nov-15 16:33N 40°40' W 074°02'0 0.0
2014-Nov-15 15:33N 40°40' W 074°02'0 0.0
2014-Nov-15 14:33N 40°40' W 074°02'0 0.0
2014-Nov-15 13:33N 40°40' W 074°02'0 0.0
2014-Nov-15 12:33N 40°40' W 074°02'0 0.0
2014-Nov-15 11:33N 40°40' W 074°02'0 0.0
2014-Nov-15 10:33N 40°40' W 074°02'0 0.0
2014-Nov-15 09:33N 40°40' W 074°02'0 0.0
2014-Nov-15 08:33N 40°40' W 074°02'0 0.0
2014-Nov-15 07:33N 40°40' W 074°02'0 0.0
2014-Nov-15 06:33N 40°40' W 074°02'0 0.0
2014-Nov-15 05:33N 40°40' W 074°02'0 0.0
2014-Nov-15 04:33N 40°40' W 074°02'0 0.0
2014-Nov-15 03:33N 40°40' W 074°02'0 0.0
2014-Nov-15 02:33N 40°40' W 074°02'0 0.0
2014-Nov-15 01:33N 40°40' W 074°02'0 0.0
2014-Nov-15 00:34N 40°40' W 074°02'0 0.0
2014-Nov-14 23:33N 40°40' W 074°02'0 0.0
2014-Nov-14 22:33N 40°40' W 074°02'4 3.6
2014-Nov-14 21:34N 40°43' W 073°58'34 8.4
2014-Nov-14 17:33N 41°02' W 073°22'10 9.4
2014-Nov-14 16:32N 41°04' W 073°10'17 8.3
2014-Nov-14 14:29N 41°17' W 072°55'  
Track history (hours):
 
Tides and Currents Weather Stations Pressure Air Temp Water Temp Dewpoint Dewpoint Depression Visibility Wind Speed Wind Dir Waves Ship Positions

Amy C. Mc Allister

Owner: MC ALLISTER TOWING & TRANSPORTATION INC, NEW YORK, NY. More information available from US FCC via Universal Licensing System and Coast Guard Vessel Documentation Center.

Last reported at 2014-Nov-24 12:09 UTC. Time now 2014-Nov-25 22:04 UTC.
Position N 40°48' W 073°59'.

Length 27 m; draft 4.9 m.

Type: Towing. MMSI: 366995040.

Date/timePositionNaut miles runAvg speedWind from/ knotsBaromVisibWave heightAir tempDewpointWater temp
2014-Nov-24 12:09N 40°48' W 073°59'610.6
2014-Nov-24 11:33N 40°42' W 074°01'7 6.5
2014-Nov-24 10:33N 40°39' W 074°09'2 0.6
2014-Nov-24 07:22N 40°39' W 074°11'1 0.4
2014-Nov-24 04:33N 40°38' W 074°10'0 0.0
2014-Nov-24 03:33N 40°38' W 074°10'0 0.0
2014-Nov-24 02:30N 40°38' W 074°10'0 0.0
2014-Nov-24 01:18N 40°38' W 074°10'0 0.0
2014-Nov-24 00:32N 40°38' W 074°10'0 0.0
2014-Nov-23 23:27N 40°38' W 074°10'0 0.0
2014-Nov-23 22:27N 40°38' W 074°10'0 0.0
2014-Nov-23 20:28N 40°38' W 074°10'0 0.0
2014-Nov-23 19:28N 40°38' W 074°10'0 0.0
2014-Nov-23 18:33N 40°38' W 074°10'0 0.0
2014-Nov-23 17:26N 40°38' W 074°10'0 0.0
2014-Nov-23 16:33N 40°38' W 074°10'4 3.6
2014-Nov-23 15:29N 40°35' W 074°13'4 3.9
2014-Nov-23 14:32N 40°39' W 074°11'3 3.0
2014-Nov-23 13:33N 40°39' W 074°07'0 0.0
2014-Nov-23 12:33N 40°39' W 074°07'0 0.0
2014-Nov-23 11:33N 40°39' W 074°07'0 0.0
2014-Nov-23 10:33N 40°39' W 074°07'0 0.0
2014-Nov-23 09:33N 40°39' W 074°07'0 0.0
2014-Nov-23 08:33N 40°39' W 074°07'0 0.0
2014-Nov-23 07:33N 40°39' W 074°07'0 0.0
2014-Nov-23 06:33N 40°39' W 074°07'0 0.0
2014-Nov-23 05:33N 40°39' W 074°07'0 0.0
2014-Nov-23 04:33N 40°39' W 074°07'0 0.0
2014-Nov-23 03:32N 40°39' W 074°07'0 0.0
2014-Nov-23 02:32N 40°39' W 074°07'0 0.0
2014-Nov-23 01:33N 40°39' W 074°07'0 0.0
2014-Nov-23 00:33N 40°39' W 074°07'0 0.0
2014-Nov-22 23:33N 40°39' W 074°07'0 0.0
2014-Nov-22 22:33N 40°39' W 074°07'0 0.5
2014-Nov-22 21:33N 40°39' W 074°07'5 5.5
2014-Nov-22 20:33N 40°43' W 074°02'4 4.2
2014-Nov-22 19:33N 40°45' W 073°57'24 7.6
2014-Nov-22 16:27N 40°58' W 073°31'7 8.4
2014-Nov-22 15:33N 41°01' W 073°22'9 8.7
2014-Nov-22 14:33N 41°01' W 073°10'8 8.3
2014-Nov-22 13:33N 41°03' W 072°59'8 8.4
2014-Nov-22 12:33N 41°05' W 072°48'9 9.3
2014-Nov-22 11:33N 41°07' W 072°37'10 9.5
2014-Nov-22 10:33N 41°10' W 072°24'9 8.8
2014-Nov-22 09:33N 41°12' W 072°13'7 7.4
2014-Nov-22 08:33N 41°14' W 072°04'7 6.6
2014-Nov-22 07:33N 41°15' W 071°55'7 7.3
2014-Nov-22 06:33N 41°16' W 071°46'7 7.4
2014-Nov-22 05:33N 41°18' W 071°36'7 7.3
2014-Nov-22 04:33N 41°17' W 071°26'7 7.3
2014-Nov-22 03:33N 41°20' W 071°17'7 7.5
2014-Nov-22 02:33N 41°23' W 071°08'  
2014-Nov-19 13:27N 41°23' W 071°07'7 7.7
2014-Nov-19 12:33N 41°23' W 071°16'6 5.9
2014-Nov-19 11:33N 41°22' W 071°24'5 4.8
2014-Nov-19 10:33N 41°18' W 071°28'3 3.5
2014-Nov-19 09:33N 41°18' W 071°33'3 3.4
2014-Nov-19 08:33N 41°17' W 071°37'4 3.6
2014-Nov-19 07:33N 41°17' W 071°42'4 3.8
2014-Nov-19 06:33N 41°16' W 071°47'4 4.3
2014-Nov-19 05:33N 41°15' W 071°53'5 4.6
2014-Nov-19 04:33N 41°14' W 071°59'7 6.6
2014-Nov-19 03:33N 41°14' W 072°07'6 6.5
2014-Nov-19 02:33N 41°12' W 072°16'6 6.0
2014-Nov-19 01:33N 41°10' W 072°23'5 5.4
2014-Nov-19 00:33N 41°09' W 072°30'5 5.1
2014-Nov-18 23:33N 41°08' W 072°37'5 5.1
2014-Nov-18 22:33N 41°06' W 072°43'5 5.2
2014-Nov-18 21:33N 41°05' W 072°50'5 5.1
2014-Nov-18 20:33N 41°04' W 072°56'5 5.1
2014-Nov-18 19:33N 41°03' W 073°03'6 5.2
2014-Nov-18 18:19N 41°02' W 073°12'32 5.1
2014-Nov-18 12:06N 40°48' W 073°49'3 5.5
2014-Nov-18 11:32N 40°48' W 073°54'7 7.4
2014-Nov-18 10:33N 40°42' W 073°59'3 3.5
2014-Nov-18 09:33N 40°40' W 074°02'0 0.0
2014-Nov-18 08:33N 40°40' W 074°02'0 0.1
2014-Nov-18 07:33N 40°40' W 074°02'1 0.7
2014-Nov-18 06:33N 40°39' W 074°03'6 6.5
2014-Nov-18 05:33N 40°39' W 074°11'3 2.5
2014-Nov-18 04:30N 40°36' W 074°12'0 0.0
2014-Nov-18 03:20N 40°36' W 074°12'3 2.3
2014-Nov-18 02:14N 40°39' W 074°11'1 1.1
2014-Nov-18 01:08N 40°38' W 074°10'3 5.8
2014-Nov-18 00:33N 40°39' W 074°05'2 2.3
2014-Nov-17 23:33N 40°39' W 074°02'0 0.0
2014-Nov-17 22:33N 40°39' W 074°02'0 0.0
2014-Nov-17 21:33N 40°39' W 074°02'0 0.0
2014-Nov-17 20:33N 40°39' W 074°02'0 0.0
2014-Nov-17 19:33N 40°39' W 074°02'0 0.1
2014-Nov-17 18:33N 40°39' W 074°03'0 0.0
2014-Nov-17 17:33N 40°39' W 074°03'0 0.0
2014-Nov-17 16:33N 40°39' W 074°03'2 2.0
2014-Nov-17 15:33N 40°40' W 074°00'8 8.3
2014-Nov-17 14:33N 40°39' W 074°11'3 1.3
2014-Nov-17 12:33N 40°36' W 074°12'1 1.3
2014-Nov-17 11:29N 40°35' W 074°13'6 0.6
2014-Nov-17 02:11N 40°29' W 074°15'0 0.0
2014-Nov-16 22:31N 40°29' W 074°15'0 0.0
2014-Nov-16 21:27N 40°29' W 074°15'0 0.0
2014-Nov-16 20:09N 40°29' W 074°15'9 2.5
2014-Nov-16 16:28N 40°38' W 074°12'6 6.5
2014-Nov-16 15:33N 40°39' W 074°04'2 2.2
2014-Nov-16 14:33N 40°40' W 074°02'0 0.0
2014-Nov-16 13:33N 40°40' W 074°02'0 0.0
2014-Nov-16 12:33N 40°40' W 074°02'0 0.0
2014-Nov-16 11:33N 40°40' W 074°02'0 0.1
2014-Nov-16 10:33N 40°40' W 074°02'0 0.0
2014-Nov-16 09:33N 40°40' W 074°02'0 0.0
2014-Nov-16 08:33N 40°40' W 074°02'0 0.0
2014-Nov-16 07:33N 40°40' W 074°02'0 0.0
2014-Nov-16 06:33N 40°40' W 074°02'0 0.1
2014-Nov-16 05:33N 40°40' W 074°02'0 0.0
2014-Nov-16 04:33N 40°40' W 074°02'0 0.0
2014-Nov-16 03:33N 40°40' W 074°02'0 0.0
2014-Nov-16 02:33N 40°40' W 074°02'0 0.0
2014-Nov-16 01:33N 40°40' W 074°02'0 0.0
2014-Nov-16 00:33N 40°40' W 074°02'0 0.0
2014-Nov-15 23:33N 40°40' W 074°02'0 0.0
2014-Nov-15 22:33N 40°40' W 074°02'0 0.1
2014-Nov-15 21:33N 40°40' W 074°02'2 1.7
2014-Nov-15 20:33N 40°41' W 074°00'0 0.0
2014-Nov-15 19:33N 40°41' W 074°00'0 0.0
2014-Nov-15 18:33N 40°41' W 074°00'2 1.7
2014-Nov-15 17:33N 40°40' W 074°02'0 0.0
2014-Nov-15 16:33N 40°40' W 074°02'0 0.0
2014-Nov-15 15:33N 40°40' W 074°02'0 0.0
2014-Nov-15 14:33N 40°40' W 074°02'0 0.0
2014-Nov-15 13:33N 40°40' W 074°02'0 0.0
2014-Nov-15 12:33N 40°40' W 074°02'0 0.0
2014-Nov-15 11:33N 40°40' W 074°02'0 0.0
2014-Nov-15 10:33N 40°40' W 074°02'0 0.0
2014-Nov-15 09:33N 40°40' W 074°02'0 0.0
2014-Nov-15 08:33N 40°40' W 074°02'0 0.0
2014-Nov-15 07:33N 40°40' W 074°02'0 0.0
2014-Nov-15 06:33N 40°40' W 074°02'0 0.0
2014-Nov-15 05:33N 40°40' W 074°02'0 0.0
2014-Nov-15 04:33N 40°40' W 074°02'0 0.0
2014-Nov-15 03:33N 40°40' W 074°02'0 0.0
2014-Nov-15 02:33N 40°40' W 074°02'0 0.0
2014-Nov-15 01:33N 40°40' W 074°02'0 0.0
2014-Nov-15 00:34N 40°40' W 074°02'0 0.0
2014-Nov-14 23:33N 40°40' W 074°02'0 0.0
2014-Nov-14 22:33N 40°40' W 074°02'4 3.6
2014-Nov-14 21:34N 40°43' W 073°58'34 8.4
2014-Nov-14 17:33N 41°02' W 073°22'10 9.4
2014-Nov-14 16:32N 41°04' W 073°10'17 8.3
2014-Nov-14 14:29N 41°17' W 072°55'  

Dump ship's entire track history